Terminal Aerodrome Forecast
Issued by NWS

Home | Current Version | Previous Version | Text Only | Print | Product List | Glossary On
Versions: 1 2 3 4 5 6 7 8 9 10 11 12 13 14 15 16 17
000
FTUS46 KOTX 231729
TAFSFF
TAF
KSFF 231729Z 2318/2418 22012G22KT P6SM BKN025 OVC080
     FM232200 23016G23KT P6SM VCSH SCT030 BKN080
     FM240500 16007KT P6SM -RA BKN030 OVC050
     FM241200 15004KT P6SM -RA OVC018=

USA.gov is the U.S. government's official web portal to all federal, state and local government web resources and services.